sensor_id;sensor_type;location;lat;lon;timestamp;P1;durP1;ratioP1;P2;durP2;ratioP2
10509;SDS011;5303;53.266;10.410;2023-09-19T00:00:36;2.67;;;2.10;;
10509;SDS011;5303;53.266;10.410;2023-09-19T00:03:02;3.80;;;2.27;;
10509;SDS011;5303;53.266;10.410;2023-09-19T00:05:29;3.17;;;2.03;;
10509;SDS011;5303;53.266;10.410;2023-09-19T00:07:59;3.70;;;2.00;;
10509;SDS011;5303;53.266;10.410;2023-09-19T00:10:25;2.63;;;2.00;;
10509;SDS011;5303;53.266;10.410;2023-09-19T00:12:54;6.43;;;2.33;;
10509;SDS011;5303;53.266;10.410;2023-09-19T00:15:24;3.30;;;2.13;;
10509;SDS011;5303;53.266;10.410;2023-09-19T00:17:53;2.70;;;2.30;;
10509;SDS011;5303;53.266;10.410;2023-09-19T00:20:20;2.97;;;2.10;;
10509;SDS011;5303;53.266;10.410;2023-09-19T00:22:48;2.20;;;2.00;;
10509;SDS011;5303;53.266;10.410;2023-09-19T00:25:14;2.23;;;2.00;;
10509;SDS011;5303;53.266;10.410;2023-09-19T00:27:40;2.80;;;2.20;;
10509;SDS011;5303;53.266;10.410;2023-09-19T00:30:07;3.03;;;2.13;;
10509;SDS011;5303;53.266;10.410;2023-09-19T00:32:40;4.30;;;2.67;;
10509;SDS011;5303;53.266;10.410;2023-09-19T00:35:07;2.70;;;2.10;;
10509;SDS011;5303;53.266;10.410;2023-09-19T00:37:35;2.63;;;2.07;;
10509;SDS011;5303;53.266;10.410;2023-09-19T00:40:02;4.33;;;2.70;;
10509;SDS011;5303;53.266;10.410;2023-09-19T00:42:30;5.40;;;2.60;;
10509;SDS011;5303;53.266;10.410;2023-09-19T00:44:56;4.27;;;2.67;;
10509;SDS011;5303;53.266;10.410;2023-09-19T00:47:22;2.83;;;2.50;;
10509;SDS011;5303;53.266;10.410;2023-09-19T00:49:47;3.17;;;2.60;;
10509;SDS011;5303;53.266;10.410;2023-09-19T00:52:15;4.17;;;2.50;;
10509;SDS011;5303;53.266;10.410;2023-09-19T00:54:41;3.83;;;2.63;;
10509;SDS011;5303;53.266;10.410;2023-09-19T00:57:06;3.47;;;2.37;;
10509;SDS011;5303;53.266;10.410;2023-09-19T00:59:32;3.37;;;2.43;;
10509;SDS011;5303;53.266;10.410;2023-09-19T01:02:00;4.30;;;2.93;;
10509;SDS011;5303;53.266;10.410;2023-09-19T01:04:27;2.87;;;2.60;;
10509;SDS011;5303;53.266;10.410;2023-09-19T01:06:53;5.37;;;3.13;;
10509;SDS011;5303;53.266;10.410;2023-09-19T01:09:19;7.23;;;3.20;;
10509;SDS011;5303;53.266;10.410;2023-09-19T01:11:45;4.30;;;2.67;;
10509;SDS011;5303;53.266;10.410;2023-09-19T01:14:15;4.03;;;3.07;;
10509;SDS011;5303;53.266;10.410;2023-09-19T01:16:53;4.07;;;3.00;;
10509;SDS011;5303;53.266;10.410;2023-09-19T01:19:34;4.93;;;3.57;;
10509;SDS011;5303;53.266;10.410;2023-09-19T01:31:01;6.57;;;3.53;;
10509;SDS011;5303;53.266;10.410;2023-09-19T01:33:28;5.93;;;3.73;;
10509;SDS011;5303;53.266;10.410;2023-09-19T01:36:16;6.67;;;3.60;;
10509;SDS011;5303;53.266;10.410;2023-09-19T01:38:41;4.73;;;3.50;;
10509;SDS011;5303;53.266;10.410;2023-09-19T01:41:10;7.07;;;3.83;;
10509;SDS011;5303;53.266;10.410;2023-09-19T01:43:41;6.43;;;3.67;;
10509;SDS011;5303;53.266;10.410;2023-09-19T01:46:15;4.17;;;3.47;;
10509;SDS011;5303;53.266;10.410;2023-09-19T01:48:46;5.80;;;3.97;;
10509;SDS011;5303;53.266;10.410;2023-09-19T01:51:47;7.07;;;4.40;;
10509;SDS011;5303;53.266;10.410;2023-09-19T01:54:30;7.97;;;4.13;;
10509;SDS011;5303;53.266;10.410;2023-09-19T01:57:07;7.80;;;4.40;;
10509;SDS011;5303;53.266;10.410;2023-09-19T01:59:41;8.00;;;4.33;;
10509;SDS011;5303;53.266;10.410;2023-09-19T02:02:10;7.50;;;4.50;;
10509;SDS011;5303;53.266;10.410;2023-09-19T02:04:37;8.43;;;4.20;;
10509;SDS011;5303;53.266;10.410;2023-09-19T02:07:02;8.80;;;4.20;;
10509;SDS011;5303;53.266;10.410;2023-09-19T02:09:30;7.43;;;4.10;;
10509;SDS011;5303;53.266;10.410;2023-09-19T02:11:56;7.73;;;3.73;;
10509;SDS011;5303;53.266;10.410;2023-09-19T02:14:21;8.53;;;4.03;;
10509;SDS011;5303;53.266;10.410;2023-09-19T02:16:47;6.03;;;4.00;;
10509;SDS011;5303;53.266;10.410;2023-09-19T02:19:13;5.07;;;3.93;;
10509;SDS011;5303;53.266;10.410;2023-09-19T02:21:38;7.70;;;4.43;;
10509;SDS011;5303;53.266;10.410;2023-09-19T02:24:05;5.63;;;4.00;;
10509;SDS011;5303;53.266;10.410;2023-09-19T02:26:33;5.97;;;4.07;;
10509;SDS011;5303;53.266;10.410;2023-09-19T02:29:01;6.67;;;3.23;;
10509;SDS011;5303;53.266;10.410;2023-09-19T02:31:29;6.90;;;4.00;;
10509;SDS011;5303;53.266;10.410;2023-09-19T02:33:55;10.10;;;3.90;;
10509;SDS011;5303;53.266;10.410;2023-09-19T02:36:21;7.27;;;4.30;;
10509;SDS011;5303;53.266;10.410;2023-09-19T02:38:48;5.80;;;3.23;;
10509;SDS011;5303;53.266;10.410;2023-09-19T02:41:13;6.60;;;3.97;;
10509;SDS011;5303;53.266;10.410;2023-09-19T02:43:38;7.20;;;3.93;;
10509;SDS011;5303;53.266;10.410;2023-09-19T02:46:04;4.73;;;3.57;;
10509;SDS011;5303;53.266;10.410;2023-09-19T02:48:29;5.27;;;3.57;;
10509;SDS011;5303;53.266;10.410;2023-09-19T02:50:54;4.87;;;3.73;;
10509;SDS011;5303;53.266;10.410;2023-09-19T02:53:20;4.43;;;3.50;;
10509;SDS011;5303;53.266;10.410;2023-09-19T02:55:46;6.70;;;3.57;;
10509;SDS011;5303;53.266;10.410;2023-09-19T02:58:13;7.23;;;3.80;;
10509;SDS011;5303;53.266;10.410;2023-09-19T03:00:39;6.20;;;3.40;;
10509;SDS011;5303;53.266;10.410;2023-09-19T03:03:06;6.43;;;3.53;;
10509;SDS011;5303;53.266;10.410;2023-09-19T03:05:33;7.10;;;3.57;;
10509;SDS011;5303;53.266;10.410;2023-09-19T03:07:59;7.47;;;3.73;;
10509;SDS011;5303;53.266;10.410;2023-09-19T03:10:29;7.83;;;3.20;;
10509;SDS011;5303;53.266;10.410;2023-09-19T03:12:55;9.40;;;3.50;;
10509;SDS011;5303;53.266;10.410;2023-09-19T03:15:20;7.23;;;3.57;;
10509;SDS011;5303;53.266;10.410;2023-09-19T03:17:47;7.13;;;3.17;;
10509;SDS011;5303;53.266;10.410;2023-09-19T03:20:13;5.30;;;3.23;;
10509;SDS011;5303;53.266;10.410;2023-09-19T03:22:42;5.53;;;3.10;;
10509;SDS011;5303;53.266;10.410;2023-09-19T03:25:08;6.70;;;3.30;;
10509;SDS011;5303;53.266;10.410;2023-09-19T03:27:34;5.57;;;2.90;;
10509;SDS011;5303;53.266;10.410;2023-09-19T03:29:59;5.30;;;2.83;;
10509;SDS011;5303;53.266;10.410;2023-09-19T03:32:25;5.33;;;2.70;;
10509;SDS011;5303;53.266;10.410;2023-09-19T03:34:50;4.33;;;2.80;;
10509;SDS011;5303;53.266;10.410;2023-09-19T03:37:15;4.90;;;2.73;;
10509;SDS011;5303;53.266;10.410;2023-09-19T03:39:40;5.27;;;2.70;;
10509;SDS011;5303;53.266;10.410;2023-09-19T03:42:06;7.73;;;2.47;;
10509;SDS011;5303;53.266;10.410;2023-09-19T03:44:32;5.33;;;2.63;;
10509;SDS011;5303;53.266;10.410;2023-09-19T03:46:57;4.03;;;2.20;;
10509;SDS011;5303;53.266;10.410;2023-09-19T03:49:23;3.27;;;2.20;;
10509;SDS011;5303;53.266;10.410;2023-09-19T03:51:48;2.60;;;1.90;;
10509;SDS011;5303;53.266;10.410;2023-09-19T03:54:13;4.90;;;2.23;;
10509;SDS011;5303;53.266;10.410;2023-09-19T03:56:39;5.63;;;1.97;;
10509;SDS011;5303;53.266;10.410;2023-09-19T03:59:04;4.67;;;1.90;;
10509;SDS011;5303;53.266;10.410;2023-09-19T04:01:30;3.80;;;1.80;;
10509;SDS011;5303;53.266;10.410;2023-09-19T04:03:57;3.03;;;2.17;;
10509;SDS011;5303;53.266;10.410;2023-09-19T04:06:22;5.13;;;2.10;;
10509;SDS011;5303;53.266;10.410;2023-09-19T04:08:48;5.03;;;2.30;;
10509;SDS011;5303;53.266;10.410;2023-09-19T04:11:13;3.50;;;2.10;;
10509;SDS011;5303;53.266;10.410;2023-09-19T04:13:39;7.33;;;2.47;;
10509;SDS011;5303;53.266;10.410;2023-09-19T04:16:04;5.17;;;2.10;;
10509;SDS011;5303;53.266;10.410;2023-09-19T04:18:31;4.43;;;2.47;;
10509;SDS011;5303;53.266;10.410;2023-09-19T04:20:58;6.30;;;2.23;;
10509;SDS011;5303;53.266;10.410;2023-09-19T04:23:23;6.57;;;2.40;;
10509;SDS011;5303;53.266;10.410;2023-09-19T04:25:48;4.13;;;2.30;;
10509;SDS011;5303;53.266;10.410;2023-09-19T04:28:14;6.67;;;2.80;;
10509;SDS011;5303;53.266;10.410;2023-09-19T04:30:40;5.73;;;2.60;;
10509;SDS011;5303;53.266;10.410;2023-09-19T04:33:05;4.80;;;2.63;;
10509;SDS011;5303;53.266;10.410;2023-09-19T04:35:32;6.67;;;2.50;;
10509;SDS011;5303;53.266;10.410;2023-09-19T04:37:58;6.50;;;2.50;;
10509;SDS011;5303;53.266;10.410;2023-09-19T04:40:23;4.13;;;2.40;;
10509;SDS011;5303;53.266;10.410;2023-09-19T04:42:55;3.70;;;2.20;;
10509;SDS011;5303;53.266;10.410;2023-09-19T04:45:24;6.23;;;2.87;;
10509;SDS011;5303;53.266;10.410;2023-09-19T04:47:51;8.23;;;2.73;;
10509;SDS011;5303;53.266;10.410;2023-09-19T04:50:17;4.23;;;2.50;;
10509;SDS011;5303;53.266;10.410;2023-09-19T04:52:43;6.23;;;2.77;;
10509;SDS011;5303;53.266;10.410;2023-09-19T04:55:16;5.53;;;2.83;;
10509;SDS011;5303;53.266;10.410;2023-09-19T04:57:49;5.07;;;2.60;;
10509;SDS011;5303;53.266;10.410;2023-09-19T05:00:18;6.77;;;2.80;;
10509;SDS011;5303;53.266;10.410;2023-09-19T05:02:51;4.60;;;2.77;;
10509;SDS011;5303;53.266;10.410;2023-09-19T05:05:17;3.83;;;2.40;;
10509;SDS011;5303;53.266;10.410;2023-09-19T05:07:43;5.57;;;2.43;;
10509;SDS011;5303;53.266;10.410;2023-09-19T05:10:09;4.77;;;2.50;;
10509;SDS011;5303;53.266;10.410;2023-09-19T05:12:36;6.60;;;2.90;;
10509;SDS011;5303;53.266;10.410;2023-09-19T05:15:02;7.27;;;2.80;;
10509;SDS011;5303;53.266;10.410;2023-09-19T05:17:28;4.70;;;3.00;;
10509;SDS011;5303;53.266;10.410;2023-09-19T05:19:54;4.67;;;2.30;;
10509;SDS011;5303;53.266;10.410;2023-09-19T05:22:19;3.77;;;2.50;;
10509;SDS011;5303;53.266;10.410;2023-09-19T05:24:44;7.00;;;2.70;;
10509;SDS011;5303;53.266;10.410;2023-09-19T05:27:12;4.93;;;2.50;;
10509;SDS011;5303;53.266;10.410;2023-09-19T05:29:37;9.27;;;3.07;;
10509;SDS011;5303;53.266;10.410;2023-09-19T05:32:03;5.83;;;2.70;;
10509;SDS011;5303;53.266;10.410;2023-09-19T05:34:29;7.80;;;2.90;;
10509;SDS011;5303;53.266;10.410;2023-09-19T05:36:55;6.03;;;2.50;;
10509;SDS011;5303;53.266;10.410;2023-09-19T05:39:20;7.37;;;2.80;;
10509;SDS011;5303;53.266;10.410;2023-09-19T05:41:46;5.30;;;2.70;;
10509;SDS011;5303;53.266;10.410;2023-09-19T05:44:12;8.47;;;2.97;;
10509;SDS011;5303;53.266;10.410;2023-09-19T05:46:39;7.87;;;3.00;;
10509;SDS011;5303;53.266;10.410;2023-09-19T05:49:04;7.00;;;2.80;;
10509;SDS011;5303;53.266;10.410;2023-09-19T05:51:29;6.80;;;2.97;;
10509;SDS011;5303;53.266;10.410;2023-09-19T05:53:54;5.17;;;2.67;;
10509;SDS011;5303;53.266;10.410;2023-09-19T05:56:20;7.23;;;3.10;;
10509;SDS011;5303;53.266;10.410;2023-09-19T05:58:45;7.63;;;3.00;;
10509;SDS011;5303;53.266;10.410;2023-09-19T06:01:10;12.83;;;3.07;;
10509;SDS011;5303;53.266;10.410;2023-09-19T06:03:36;6.07;;;2.70;;
10509;SDS011;5303;53.266;10.410;2023-09-19T06:06:02;5.30;;;2.97;;
10509;SDS011;5303;53.266;10.410;2023-09-19T06:08:27;6.80;;;2.83;;
10509;SDS011;5303;53.266;10.410;2023-09-19T06:10:53;9.17;;;3.23;;
10509;SDS011;5303;53.266;10.410;2023-09-19T06:13:19;6.13;;;3.07;;
10509;SDS011;5303;53.266;10.410;2023-09-19T06:15:45;5.00;;;3.07;;
10509;SDS011;5303;53.266;10.410;2023-09-19T06:18:11;5.43;;;3.30;;
10509;SDS011;5303;53.266;10.410;2023-09-19T06:20:44;8.77;;;3.30;;
10509;SDS011;5303;53.266;10.410;2023-09-19T06:23:10;9.10;;;3.33;;
10509;SDS011;5303;53.266;10.410;2023-09-19T06:25:35;10.90;;;3.00;;
10509;SDS011;5303;53.266;10.410;2023-09-19T06:28:01;9.83;;;3.20;;
10509;SDS011;5303;53.266;10.410;2023-09-19T06:30:29;6.77;;;3.00;;
10509;SDS011;5303;53.266;10.410;2023-09-19T06:32:58;11.37;;;3.57;;
10509;SDS011;5303;53.266;10.410;2023-09-19T06:35:25;6.90;;;3.13;;
10509;SDS011;5303;53.266;10.410;2023-09-19T06:37:51;12.20;;;3.37;;
10509;SDS011;5303;53.266;10.410;2023-09-19T06:40:17;6.87;;;3.27;;
10509;SDS011;5303;53.266;10.410;2023-09-19T06:42:45;7.80;;;2.90;;
10509;SDS011;5303;53.266;10.410;2023-09-19T06:45:13;7.07;;;3.20;;
10509;SDS011;5303;53.266;10.410;2023-09-19T06:47:43;7.30;;;2.57;;
10509;SDS011;5303;53.266;10.410;2023-09-19T06:50:09;11.57;;;3.30;;
10509;SDS011;5303;53.266;10.410;2023-09-19T06:52:38;6.90;;;2.77;;
10509;SDS011;5303;53.266;10.410;2023-09-19T06:55:05;8.60;;;3.30;;
10509;SDS011;5303;53.266;10.410;2023-09-19T06:57:31;10.73;;;3.30;;
10509;SDS011;5303;53.266;10.410;2023-09-19T06:59:56;8.10;;;3.03;;
10509;SDS011;5303;53.266;10.410;2023-09-19T07:02:22;8.27;;;3.30;;
10509;SDS011;5303;53.266;10.410;2023-09-19T07:04:47;8.60;;;2.93;;
10509;SDS011;5303;53.266;10.410;2023-09-19T07:07:12;8.27;;;3.30;;
10509;SDS011;5303;53.266;10.410;2023-09-19T07:09:38;12.40;;;3.00;;
10509;SDS011;5303;53.266;10.410;2023-09-19T07:12:04;6.53;;;3.10;;
10509;SDS011;5303;53.266;10.410;2023-09-19T07:14:30;9.03;;;3.50;;
10509;SDS011;5303;53.266;10.410;2023-09-19T07:16:55;8.17;;;3.10;;
10509;SDS011;5303;53.266;10.410;2023-09-19T07:19:20;7.27;;;3.23;;
10509;SDS011;5303;53.266;10.410;2023-09-19T07:21:46;7.30;;;3.23;;
10509;SDS011;5303;53.266;10.410;2023-09-19T07:24:12;6.53;;;3.30;;
10509;SDS011;5303;53.266;10.410;2023-09-19T07:26:38;6.80;;;3.13;;
10509;SDS011;5303;53.266;10.410;2023-09-19T07:29:05;11.63;;;3.73;;
10509;SDS011;5303;53.266;10.410;2023-09-19T07:31:31;10.57;;;3.93;;
10509;SDS011;5303;53.266;10.410;2023-09-19T07:33:58;8.27;;;3.80;;
10509;SDS011;5303;53.266;10.410;2023-09-19T07:36:24;11.47;;;3.60;;
10509;SDS011;5303;53.266;10.410;2023-09-19T07:38:49;8.13;;;3.03;;
10509;SDS011;5303;53.266;10.410;2023-09-19T07:41:15;10.47;;;3.70;;
10509;SDS011;5303;53.266;10.410;2023-09-19T07:43:40;10.00;;;3.77;;
10509;SDS011;5303;53.266;10.410;2023-09-19T07:46:06;10.93;;;4.33;;
10509;SDS011;5303;53.266;10.410;2023-09-19T07:48:32;10.07;;;3.67;;
10509;SDS011;5303;53.266;10.410;2023-09-19T07:51:02;13.63;;;3.83;;
10509;SDS011;5303;53.266;10.410;2023-09-19T07:53:28;8.00;;;3.83;;
10509;SDS011;5303;53.266;10.410;2023-09-19T07:56:01;7.27;;;3.80;;
10509;SDS011;5303;53.266;10.410;2023-09-19T07:58:30;10.20;;;3.70;;
10509;SDS011;5303;53.266;10.410;2023-09-19T08:00:56;9.97;;;3.73;;
10509;SDS011;5303;53.266;10.410;2023-09-19T08:03:21;10.93;;;4.23;;
10509;SDS011;5303;53.266;10.410;2023-09-19T08:05:47;8.27;;;3.47;;
10509;SDS011;5303;53.266;10.410;2023-09-19T08:08:13;8.57;;;3.60;;
10509;SDS011;5303;53.266;10.410;2023-09-19T08:10:39;10.00;;;3.97;;
10509;SDS011;5303;53.266;10.410;2023-09-19T08:13:07;10.03;;;4.60;;
10509;SDS011;5303;53.266;10.410;2023-09-19T08:15:36;10.07;;;3.77;;
10509;SDS011;5303;53.266;10.410;2023-09-19T08:18:08;13.77;;;4.27;;
10509;SDS011;5303;53.266;10.410;2023-09-19T08:20:36;9.30;;;4.03;;
10509;SDS011;5303;53.266;10.410;2023-09-19T08:23:03;9.37;;;3.30;;
10509;SDS011;5303;53.266;10.410;2023-09-19T08:25:28;10.10;;;3.70;;
10509;SDS011;5303;53.266;10.410;2023-09-19T08:27:54;6.37;;;3.10;;
10509;SDS011;5303;53.266;10.410;2023-09-19T08:30:23;8.43;;;3.30;;
10509;SDS011;5303;53.266;10.410;2023-09-19T08:32:49;9.13;;;3.13;;
10509;SDS011;5303;53.266;10.410;2023-09-19T08:35:24;13.33;;;3.40;;
10509;SDS011;5303;53.266;10.410;2023-09-19T08:37:49;8.73;;;2.90;;
10509;SDS011;5303;53.266;10.410;2023-09-19T08:40:15;6.37;;;2.80;;
10509;SDS011;5303;53.266;10.410;2023-09-19T08:42:51;10.60;;;3.17;;
10509;SDS011;5303;53.266;10.410;2023-09-19T08:45:19;8.13;;;2.83;;
10509;SDS011;5303;53.266;10.410;2023-09-19T08:50:57;6.27;;;2.40;;
10509;SDS011;5303;53.266;10.410;2023-09-19T08:53:36;7.33;;;3.00;;
10509;SDS011;5303;53.266;10.410;2023-09-19T08:56:11;8.77;;;2.97;;
10509;SDS011;5303;53.266;10.410;2023-09-19T09:01:32;6.73;;;2.70;;
10509;SDS011;5303;53.266;10.410;2023-09-19T09:03:58;9.57;;;2.73;;
10509;SDS011;5303;53.266;10.410;2023-09-19T09:06:24;8.40;;;2.97;;
10509;SDS011;5303;53.266;10.410;2023-09-19T09:08:51;6.70;;;3.00;;
10509;SDS011;5303;53.266;10.410;2023-09-19T09:11:17;8.07;;;2.73;;
10509;SDS011;5303;53.266;10.410;2023-09-19T09:13:43;7.13;;;2.70;;
10509;SDS011;5303;53.266;10.410;2023-09-19T09:16:09;6.70;;;2.87;;
10509;SDS011;5303;53.266;10.410;2023-09-19T09:18:35;9.83;;;2.47;;
10509;SDS011;5303;53.266;10.410;2023-09-19T09:21:01;7.37;;;2.70;;
10509;SDS011;5303;53.266;10.410;2023-09-19T09:23:27;9.73;;;3.37;;
10509;SDS011;5303;53.266;10.410;2023-09-19T09:25:56;7.30;;;2.83;;
10509;SDS011;5303;53.266;10.410;2023-09-19T09:28:24;9.00;;;2.90;;
10509;SDS011;5303;53.266;10.410;2023-09-19T09:30:51;8.50;;;3.20;;
10509;SDS011;5303;53.266;10.410;2023-09-19T09:33:17;10.77;;;3.03;;
10509;SDS011;5303;53.266;10.410;2023-09-19T09:35:59;7.00;;;3.13;;
10509;SDS011;5303;53.266;10.410;2023-09-19T09:38:27;9.87;;;3.00;;
10509;SDS011;5303;53.266;10.410;2023-09-19T09:41:09;7.47;;;2.77;;
10509;SDS011;5303;53.266;10.410;2023-09-19T09:43:37;9.70;;;2.90;;
10509;SDS011;5303;53.266;10.410;2023-09-19T09:46:23;6.90;;;2.57;;
10509;SDS011;5303;53.266;10.410;2023-09-19T09:51:39;4.60;;;2.40;;
10509;SDS011;5303;53.266;10.410;2023-09-19T09:54:14;8.93;;;2.53;;
10509;SDS011;5303;53.266;10.410;2023-09-19T10:02:11;8.57;;;2.83;;
10509;SDS011;5303;53.266;10.410;2023-09-19T10:04:38;7.50;;;2.77;;
10509;SDS011;5303;53.266;10.410;2023-09-19T10:07:29;9.10;;;2.70;;
10509;SDS011;5303;53.266;10.410;2023-09-19T10:10:02;7.03;;;2.83;;
10509;SDS011;5303;53.266;10.410;2023-09-19T10:12:44;8.50;;;2.63;;
10509;SDS011;5303;53.266;10.410;2023-09-19T10:15:13;8.97;;;3.00;;
10509;SDS011;5303;53.266;10.410;2023-09-19T10:17:41;6.40;;;2.37;;
10509;SDS011;5303;53.266;10.410;2023-09-19T10:20:17;7.67;;;2.73;;
10509;SDS011;5303;53.266;10.410;2023-09-19T10:22:53;6.50;;;2.53;;
10509;SDS011;5303;53.266;10.410;2023-09-19T10:25:26;6.53;;;2.70;;
10509;SDS011;5303;53.266;10.410;2023-09-19T10:27:55;10.07;;;3.17;;
10509;SDS011;5303;53.266;10.410;2023-09-19T10:30:23;8.87;;;2.70;;
10509;SDS011;5303;53.266;10.410;2023-09-19T10:33:00;11.20;;;3.03;;
10509;SDS011;5303;53.266;10.410;2023-09-19T10:35:27;6.97;;;3.00;;
10509;SDS011;5303;53.266;10.410;2023-09-19T10:37:54;8.93;;;2.70;;
10509;SDS011;5303;53.266;10.410;2023-09-19T10:40:21;7.43;;;2.70;;
10509;SDS011;5303;53.266;10.410;2023-09-19T10:42:55;7.50;;;2.60;;
10509;SDS011;5303;53.266;10.410;2023-09-19T10:45:30;8.03;;;3.30;;
10509;SDS011;5303;53.266;10.410;2023-09-19T10:48:00;6.00;;;2.63;;
10509;SDS011;5303;53.266;10.410;2023-09-19T10:50:28;4.53;;;2.20;;
10509;SDS011;5303;53.266;10.410;2023-09-19T10:52:56;8.70;;;2.80;;
10509;SDS011;5303;53.266;10.410;2023-09-19T10:55:29;5.47;;;2.43;;
10509;SDS011;5303;53.266;10.410;2023-09-19T10:57:56;6.10;;;2.60;;
10509;SDS011;5303;53.266;10.410;2023-09-19T11:00:50;11.00;;;2.63;;
10509;SDS011;5303;53.266;10.410;2023-09-19T11:06:10;6.20;;;2.43;;
10509;SDS011;5303;53.266;10.410;2023-09-19T11:09:02;5.13;;;2.40;;
10509;SDS011;5303;53.266;10.410;2023-09-19T11:11:47;10.70;;;2.50;;
10509;SDS011;5303;53.266;10.410;2023-09-19T11:30:34;4.53;;;2.30;;
10509;SDS011;5303;53.266;10.410;2023-09-19T11:33:21;6.67;;;2.63;;
10509;SDS011;5303;53.266;10.410;2023-09-19T11:41:39;6.83;;;2.40;;
10509;SDS011;5303;53.266;10.410;2023-09-19T11:46:35;4.83;;;2.20;;
10509;SDS011;5303;53.266;10.410;2023-09-19T11:49:18;8.73;;;2.80;;
10509;SDS011;5303;53.266;10.410;2023-09-19T11:51:51;6.90;;;2.03;;
10509;SDS011;5303;53.266;10.410;2023-09-19T11:54:17;5.43;;;2.57;;
10509;SDS011;5303;53.266;10.410;2023-09-19T11:56:52;6.60;;;2.50;;
10509;SDS011;5303;53.266;10.410;2023-09-19T11:59:21;7.03;;;2.67;;
10509;SDS011;5303;53.266;10.410;2023-09-19T12:01:54;5.90;;;2.67;;
10509;SDS011;5303;53.266;10.410;2023-09-19T12:12:09;8.97;;;2.43;;
10509;SDS011;5303;53.266;10.410;2023-09-19T12:14:50;6.70;;;2.70;;
10509;SDS011;5303;53.266;10.410;2023-09-19T12:17:16;7.77;;;2.30;;
10509;SDS011;5303;53.266;10.410;2023-09-19T12:19:56;7.13;;;3.10;;
10509;SDS011;5303;53.266;10.410;2023-09-19T12:22:21;7.23;;;2.60;;
10509;SDS011;5303;53.266;10.410;2023-09-19T12:24:47;6.57;;;2.60;;
10509;SDS011;5303;53.266;10.410;2023-09-19T12:27:14;7.80;;;2.53;;
10509;SDS011;5303;53.266;10.410;2023-09-19T12:29:47;8.43;;;3.00;;
10509;SDS011;5303;53.266;10.410;2023-09-19T12:32:14;7.33;;;3.10;;
10509;SDS011;5303;53.266;10.410;2023-09-19T12:34:41;7.93;;;2.97;;
10509;SDS011;5303;53.266;10.410;2023-09-19T12:37:14;7.93;;;3.27;;
10509;SDS011;5303;53.266;10.410;2023-09-19T12:39:47;6.57;;;2.47;;
10509;SDS011;5303;53.266;10.410;2023-09-19T12:42:25;7.30;;;3.07;;
10509;SDS011;5303;53.266;10.410;2023-09-19T12:44:57;6.30;;;2.53;;
10509;SDS011;5303;53.266;10.410;2023-09-19T12:47:25;5.57;;;2.60;;
10509;SDS011;5303;53.266;10.410;2023-09-19T12:55:27;7.87;;;3.13;;
10509;SDS011;5303;53.266;10.410;2023-09-19T13:00:35;5.93;;;2.53;;
10509;SDS011;5303;53.266;10.410;2023-09-19T13:03:30;8.33;;;2.70;;
10509;SDS011;5303;53.266;10.410;2023-09-19T13:06:03;5.07;;;2.50;;
10509;SDS011;5303;53.266;10.410;2023-09-19T13:08:30;5.23;;;2.60;;
10509;SDS011;5303;53.266;10.410;2023-09-19T13:16:13;10.67;;;2.87;;
10509;SDS011;5303;53.266;10.410;2023-09-19T13:18:43;7.27;;;2.97;;
10509;SDS011;5303;53.266;10.410;2023-09-19T13:21:10;6.87;;;2.90;;
10509;SDS011;5303;53.266;10.410;2023-09-19T13:23:43;8.23;;;3.20;;
10509;SDS011;5303;53.266;10.410;2023-09-19T13:26:09;5.80;;;3.33;;
10509;SDS011;5303;53.266;10.410;2023-09-19T13:28:37;9.20;;;2.90;;
10509;SDS011;5303;53.266;10.410;2023-09-19T13:31:03;7.60;;;4.33;;
10509;SDS011;5303;53.266;10.410;2023-09-19T13:33:29;7.77;;;3.20;;
10509;SDS011;5303;53.266;10.410;2023-09-19T13:35:54;5.70;;;2.77;;
10509;SDS011;5303;53.266;10.410;2023-09-19T13:38:20;8.60;;;3.00;;
10509;SDS011;5303;53.266;10.410;2023-09-19T13:40:47;7.30;;;2.70;;
10509;SDS011;5303;53.266;10.410;2023-09-19T13:43:12;8.93;;;3.17;;
10509;SDS011;5303;53.266;10.410;2023-09-19T13:45:38;7.20;;;2.90;;
10509;SDS011;5303;53.266;10.410;2023-09-19T13:48:06;7.70;;;3.00;;
10509;SDS011;5303;53.266;10.410;2023-09-19T13:50:32;6.60;;;2.90;;
10509;SDS011;5303;53.266;10.410;2023-09-19T13:52:59;8.70;;;2.70;;
10509;SDS011;5303;53.266;10.410;2023-09-19T13:55:25;8.23;;;2.90;;
10509;SDS011;5303;53.266;10.410;2023-09-19T13:57:50;9.80;;;3.70;;
10509;SDS011;5303;53.266;10.410;2023-09-19T14:00:19;6.63;;;2.97;;
10509;SDS011;5303;53.266;10.410;2023-09-19T14:02:44;6.00;;;2.73;;
10509;SDS011;5303;53.266;10.410;2023-09-19T14:05:10;7.13;;;3.13;;
10509;SDS011;5303;53.266;10.410;2023-09-19T14:07:39;8.87;;;3.13;;
10509;SDS011;5303;53.266;10.410;2023-09-19T14:10:06;7.67;;;3.27;;
10509;SDS011;5303;53.266;10.410;2023-09-19T14:12:35;8.20;;;3.20;;
10509;SDS011;5303;53.266;10.410;2023-09-19T14:15:01;10.63;;;3.17;;
10509;SDS011;5303;53.266;10.410;2023-09-19T14:17:26;6.33;;;2.83;;
10509;SDS011;5303;53.266;10.410;2023-09-19T14:19:52;9.73;;;3.33;;
10509;SDS011;5303;53.266;10.410;2023-09-19T14:22:17;6.33;;;3.10;;
10509;SDS011;5303;53.266;10.410;2023-09-19T14:24:43;7.90;;;3.03;;
10509;SDS011;5303;53.266;10.410;2023-09-19T14:27:08;8.00;;;3.33;;
10509;SDS011;5303;53.266;10.410;2023-09-19T14:29:34;8.13;;;3.63;;
10509;SDS011;5303;53.266;10.410;2023-09-19T14:31:59;10.03;;;3.50;;
10509;SDS011;5303;53.266;10.410;2023-09-19T14:34:25;7.27;;;3.13;;
10509;SDS011;5303;53.266;10.410;2023-09-19T14:36:50;7.50;;;3.10;;
10509;SDS011;5303;53.266;10.410;2023-09-19T14:39:15;9.30;;;3.50;;
10509;SDS011;5303;53.266;10.410;2023-09-19T14:41:40;10.20;;;3.20;;
10509;SDS011;5303;53.266;10.410;2023-09-19T14:44:06;6.03;;;3.00;;
10509;SDS011;5303;53.266;10.410;2023-09-19T14:46:31;4.63;;;2.93;;
10509;SDS011;5303;53.266;10.410;2023-09-19T14:48:56;10.50;;;3.50;;
10509;SDS011;5303;53.266;10.410;2023-09-19T14:51:25;7.33;;;3.07;;
10509;SDS011;5303;53.266;10.410;2023-09-19T14:53:50;6.67;;;3.20;;
10509;SDS011;5303;53.266;10.410;2023-09-19T14:56:15;6.90;;;3.07;;
10509;SDS011;5303;53.266;10.410;2023-09-19T14:58:43;8.17;;;3.50;;
10509;SDS011;5303;53.266;10.410;2023-09-19T15:01:09;11.97;;;3.50;;
10509;SDS011;5303;53.266;10.410;2023-09-19T15:03:35;8.23;;;3.20;;
10509;SDS011;5303;53.266;10.410;2023-09-19T15:06:01;9.73;;;3.47;;
10509;SDS011;5303;53.266;10.410;2023-09-19T15:08:29;8.83;;;2.70;;
10509;SDS011;5303;53.266;10.410;2023-09-19T15:10:55;7.37;;;3.23;;
10509;SDS011;5303;53.266;10.410;2023-09-19T15:13:20;8.03;;;3.00;;
10509;SDS011;5303;53.266;10.410;2023-09-19T15:15:46;5.80;;;2.50;;
10509;SDS011;5303;53.266;10.410;2023-09-19T15:18:13;4.77;;;2.70;;
10509;SDS011;5303;53.266;10.410;2023-09-19T15:20:45;7.93;;;3.23;;
10509;SDS011;5303;53.266;10.410;2023-09-19T15:23:11;10.20;;;3.33;;
10509;SDS011;5303;53.266;10.410;2023-09-19T15:25:37;7.67;;;3.20;;
10509;SDS011;5303;53.266;10.410;2023-09-19T15:28:05;6.47;;;2.83;;
10509;SDS011;5303;53.266;10.410;2023-09-19T15:30:39;9.20;;;3.00;;
10509;SDS011;5303;53.266;10.410;2023-09-19T15:33:04;6.77;;;2.83;;
10509;SDS011;5303;53.266;10.410;2023-09-19T15:35:29;6.33;;;2.83;;
10509;SDS011;5303;53.266;10.410;2023-09-19T15:37:55;8.63;;;3.17;;
10509;SDS011;5303;53.266;10.410;2023-09-19T15:40:21;12.93;;;3.33;;
10509;SDS011;5303;53.266;10.410;2023-09-19T15:42:48;7.97;;;2.97;;
10509;SDS011;5303;53.266;10.410;2023-09-19T15:45:14;10.00;;;2.80;;
10509;SDS011;5303;53.266;10.410;2023-09-19T15:47:41;10.33;;;3.27;;
10509;SDS011;5303;53.266;10.410;2023-09-19T15:50:07;7.87;;;3.10;;
10509;SDS011;5303;53.266;10.410;2023-09-19T15:52:34;7.83;;;3.23;;
10509;SDS011;5303;53.266;10.410;2023-09-19T15:55:02;7.20;;;2.70;;
10509;SDS011;5303;53.266;10.410;2023-09-19T15:57:28;6.63;;;3.13;;
10509;SDS011;5303;53.266;10.410;2023-09-19T15:59:53;6.67;;;2.77;;
10509;SDS011;5303;53.266;10.410;2023-09-19T16:02:19;8.27;;;3.00;;